Time;durP1;ratioP1;P1;durP2;ratioP2;P2;SDS_P1;SDS_P2;PMS_P1;PMS_P2;Temp;Humidity;BMP_temperature;BMP_pressure;BME280_temperature;BME280_humidity;BME280_pressure;Samples;Min_cycle;Max_cycle;Signal;HPM_P1;HPM_P2
2024/04/08 00:00:22;;;;;;;1036.30;948.40;;;13.30;99.90;;;;;;5070653;28;20485;-65
2024/04/08 00:02:50;;;;;;;1027.60;940.63;;;13.40;99.90;;;;;;5071502;28;20957;-65
2024/04/08 00:05:16;;;;;;;1020.80;932.43;;;13.30;99.90;;;;;;5076226;28;20454;-64
2024/04/08 00:07:43;;;;;;;986.50;907.17;;;13.40;99.90;;;;;;5076316;28;20465;-65
2024/04/08 00:10:09;;;;;;;966.30;890.23;;;13.30;99.90;;;;;;5080681;28;20472;-65
2024/04/08 00:12:35;;;;;;;953.20;879.50;;;13.30;99.90;;;;;;5072071;28;20454;-65
2024/04/08 00:15:02;;;;;;;944.57;875.27;;;13.20;99.90;;;;;;5071670;28;20203;-64
2024/04/08 00:17:30;;;;;;;971.83;899.63;;;13.20;99.90;;;;;;5071643;28;20461;-65
2024/04/08 00:19:56;;;;;;;985.63;909.17;;;13.20;99.90;;;;;;5079417;28;20485;-64
2024/04/08 00:22:22;;;;;;;1032.27;949.40;;;13.20;99.90;;;;;;5071801;28;20458;-64
2024/04/08 00:24:51;;;;;;;1013.23;929.30;;;13.20;99.90;;;;;;5071651;28;20219;-64
2024/04/08 00:27:18;;;;;;;1022.87;936.30;;;13.20;99.90;;;;;;5071820;28;20458;-64
2024/04/08 00:29:43;;;;;;;1041.30;950.00;;;13.20;99.90;;;;;;5071046;28;20803;-65
2024/04/08 00:32:10;;;;;;;1048.93;957.93;;;13.40;99.90;;;;;;5071614;28;20455;-64
2024/04/08 00:34:38;;;;;;;1033.87;941.17;;;13.30;99.90;;;;;;5078040;28;20233;-65
2024/04/08 00:37:05;;;;;;;1043.47;949.13;;;13.30;99.90;;;;;;5072667;28;20466;-65
2024/04/08 00:39:31;;;;;;;1074.03;975.73;;;13.30;99.90;;;;;;5071285;28;20482;-65
2024/04/08 00:41:58;;;;;;;1065.73;969.47;;;13.30;99.90;;;;;;5079962;28;20464;-65
2024/04/08 00:44:24;;;;;;;1047.40;953.90;;;13.50;99.90;;;;;;5079605;28;20470;-64
2024/04/08 00:46:51;;;;;;;1057.30;960.90;;;13.40;99.90;;;;;;5071593;28;20465;-65
2024/04/08 00:49:18;;;;;;;1065.30;969.10;;;13.40;99.90;;;;;;5082978;28;20651;-65
2024/04/08 00:51:46;;;;;;;1080.23;984.00;;;13.40;99.90;;;;;;5075448;28;20512;-64
2024/04/08 00:54:12;;;;;;;1046.63;951.83;;;13.30;99.90;;;;;;5071226;28;20470;-64
2024/04/08 00:56:40;;;;;;;1075.47;980.17;;;13.30;99.90;;;;;;5071113;28;21012;-64
2024/04/08 00:59:09;;;;;;;1061.50;971.93;;;13.30;99.90;;;;;;5071056;28;20822;-64
2024/04/08 01:01:36;;;;;;;1056.40;969.10;;;13.30;99.90;;;;;;5070716;28;20549;-64
2024/04/08 01:04:02;;;;;;;1078.20;989.40;;;13.20;99.90;;;;;;5079552;28;20477;-64
2024/04/08 01:06:29;;;;;;;1092.97;999.90;;;13.20;99.90;;;;;;5076990;28;20462;-64
2024/04/08 01:08:57;;;;;;;1094.63;998.47;;;13.20;99.90;;;;;;5073520;28;20460;-65
2024/04/08 01:11:24;;;;;;;1104.47;999.90;;;13.20;99.90;;;;;;5070790;28;20516;-65
2024/04/08 01:13:50;;;;;;;1099.67;999.90;;;13.20;99.90;;;;;;5083025;28;20466;-65
2024/04/08 01:16:17;;;;;;;1085.60;985.80;;;13.20;99.90;;;;;;5074575;28;20462;-65
2024/04/08 01:18:43;;;;;;;1073.43;975.33;;;13.20;99.90;;;;;;5074763;28;20915;-65
2024/04/08 01:21:10;;;;;;;1064.60;969.40;;;13.20;99.90;;;;;;5085724;28;20473;-64
2024/04/08 01:23:39;;;;;;;1005.80;915.17;;;13.30;99.90;;;;;;5079627;28;20482;-64
2024/04/08 01:26:05;;;;;;;902.63;824.57;;;13.30;99.90;;;;;;5074560;28;20553;-64
2024/04/08 01:28:32;;;;;;;905.57;830.87;;;13.20;99.90;;;;;;5074437;28;20458;-64
2024/04/08 01:31:00;;;;;;;851.33;778.17;;;13.10;99.90;;;;;;5073795;28;20466;-65
2024/04/08 01:33:25;;;;;;;866.00;790.40;;;13.20;99.90;;;;;;5082935;28;20474;-65
2024/04/08 01:35:53;;;;;;;896.03;813.50;;;13.10;99.90;;;;;;5074949;28;20458;-65
2024/04/08 01:38:19;;;;;;;887.20;802.60;;;13.10;99.90;;;;;;5081880;28;20462;-65
2024/04/08 01:40:47;;;;;;;889.87;803.87;;;13.10;99.90;;;;;;5082322;28;20510;-65
2024/04/08 01:43:13;;;;;;;904.47;816.30;;;13.20;99.90;;;;;;5082417;28;20223;-65
2024/04/08 01:45:40;;;;;;;1000.90;905.00;;;13.10;99.90;;;;;;5073950;28;20961;-65
2024/04/08 01:48:06;;;;;;;1034.30;931.37;;;13.20;99.90;;;;;;5082742;28;20199;-65
2024/04/08 01:50:33;;;;;;;1036.87;935.03;;;13.10;99.90;;;;;;5080196;28;20449;-64
2024/04/08 01:52:59;;;;;;;1078.77;973.03;;;13.10;99.90;;;;;;5077381;28;20477;-65
2024/04/08 01:55:26;;;;;;;1081.50;975.00;;;13.10;99.90;;;;;;5080678;28;20946;-64
2024/04/08 01:57:53;;;;;;;1101.77;996.57;;;13.10;99.90;;;;;;5082438;28;20195;-64
2024/04/08 02:00:20;;;;;;;1114.57;999.90;;;13.00;99.90;;;;;;5077820;28;20572;-65
2024/04/08 02:02:46;;;;;;;1127.10;999.90;;;12.90;99.90;;;;;;5077682;28;20458;-65
2024/04/08 02:05:13;;;;;;;1131.73;999.90;;;12.80;99.90;;;;;;5073582;28;20842;-65
2024/04/08 02:07:39;;;;;;;1137.50;999.90;;;12.70;99.90;;;;;;5073823;28;20196;-65
2024/04/08 02:10:07;;;;;;;1135.13;999.90;;;12.60;99.90;;;;;;5081834;28;20579;-64
2024/04/08 02:12:32;;;;;;;1142.70;999.90;;;12.60;99.90;;;;;;5073304;28;20460;-64
2024/04/08 02:15:01;;;;;;;1121.47;999.90;;;12.50;99.90;;;;;;5073587;28;20457;-65
2024/04/08 02:17:26;;;;;;;1129.53;999.90;;;12.40;99.90;;;;;;5073731;28;20594;-64
2024/04/08 02:19:53;;;;;;;1134.43;999.90;;;12.30;99.90;;;;;;5081426;28;20474;-64
2024/04/08 02:22:19;;;;;;;1132.27;999.90;;;12.20;99.90;;;;;;5081990;28;20226;-64
2024/04/08 02:24:46;;;;;;;1144.60;999.90;;;12.20;99.90;;;;;;5072549;28;20478;-64
2024/04/08 02:27:12;;;;;;;1147.77;999.90;;;12.10;99.90;;;;;;5073126;28;20210;-64
2024/04/08 02:29:39;;;;;;;1133.00;999.90;;;12.00;99.90;;;;;;5081570;28;20902;-64
2024/04/08 02:32:06;;;;;;;1131.83;999.90;;;12.00;99.90;;;;;;5081730;28;20996;-64
2024/04/08 02:34:33;;;;;;;1127.60;999.90;;;12.00;99.90;;;;;;5073102;28;20997;-65
2024/04/08 02:36:59;;;;;;;1127.90;999.90;;;12.00;99.90;;;;;;5073127;28;20458;-65
2024/04/08 02:39:25;;;;;;;1094.13;978.33;;;12.00;99.90;;;;;;5077916;28;21178;-65
2024/04/08 02:41:51;;;;;;;1140.03;999.90;;;12.00;99.90;;;;;;5076073;28;20216;-64
2024/04/08 02:44:18;;;;;;;1117.37;999.90;;;12.10;99.90;;;;;;5073239;28;20480;-65
2024/04/08 02:46:44;;;;;;;1128.07;999.90;;;11.90;99.90;;;;;;5081531;28;20206;-65
2024/04/08 02:49:12;;;;;;;1132.20;999.90;;;11.80;99.90;;;;;;5081310;28;20454;-64
2024/04/08 02:51:37;;;;;;;1126.83;999.90;;;11.90;99.90;;;;;;5079716;28;20588;-64
2024/04/08 02:54:04;;;;;;;1110.57;994.47;;;11.70;99.90;;;;;;5073784;28;20474;-63
2024/04/08 02:56:31;;;;;;;1136.57;999.90;;;11.70;99.90;;;;;;5080984;28;20208;-64
2024/04/08 02:58:58;;;;;;;1131.03;999.90;;;11.60;99.90;;;;;;5072631;28;20462;-65
2024/04/08 03:01:24;;;;;;;1124.03;999.90;;;11.60;99.90;;;;;;5080836;28;20986;-65
2024/04/08 03:03:50;;;;;;;1106.97;985.13;;;11.50;99.90;;;;;;5072560;28;20506;-64
2024/04/08 03:06:18;;;;;;;1096.83;979.40;;;11.60;99.90;;;;;;5072705;28;20212;-64
2024/04/08 03:08:45;;;;;;;1101.53;981.57;;;11.70;99.90;;;;;;5081107;28;20816;-64
2024/04/08 03:11:11;;;;;;;1098.07;978.10;;;11.80;99.90;;;;;;5072279;28;20469;-65
2024/04/08 03:13:39;;;;;;;1086.00;967.20;;;11.80;99.90;;;;;;5079183;28;20996;-65
2024/04/08 03:16:05;;;;;;;1083.03;956.23;;;11.90;99.90;;;;;;5081962;28;20214;-64
2024/04/08 03:18:32;;;;;;;1107.23;973.30;;;11.90;99.90;;;;;;5078385;28;20461;-65
2024/04/08 03:20:59;;;;;;;1118.97;965.63;;;11.90;99.90;;;;;;5073886;28;20478;-65
2024/04/08 03:23:27;;;;;;;1126.77;965.43;;;11.90;99.90;;;;;;5074336;28;20477;-64
2024/04/08 03:25:57;;;;;;;1133.00;957.90;;;12.10;99.90;;;;;;5092388;28;20833;-65
2024/04/08 03:28:24;;;;;;;1141.57;974.10;;;12.00;99.90;;;;;;5083844;28;20499;-65
2024/04/08 03:30:50;;;;;;;1169.63;966.50;;;12.00;99.90;;;;;;5088071;28;20453;-64
2024/04/08 03:33:20;;;;;;;1161.93;962.73;;;12.10;99.90;;;;;;5078679;28;20549;-65
2024/04/08 03:35:47;;;;;;;1147.13;978.07;;;12.10;99.90;;;;;;5071706;28;20945;-65
2024/04/08 03:38:14;;;;;;;1144.80;979.93;;;12.20;99.90;;;;;;5082065;28;20453;-65
2024/04/08 03:40:42;;;;;;;1149.63;980.73;;;12.30;99.90;;;;;;5087559;28;20474;-65
2024/04/08 03:43:09;;;;;;;1133.97;969.67;;;12.30;99.90;;;;;;5091560;28;21004;-64
2024/04/08 03:45:37;;;;;;;1153.07;990.40;;;12.20;99.90;;;;;;5085530;28;20548;-64
2024/04/08 03:48:04;;;;;;;1128.80;983.37;;;12.20;99.90;;;;;;5084796;28;20484;-65
2024/04/08 03:50:31;;;;;;;1139.77;990.43;;;12.20;99.90;;;;;;5083379;28;20445;-64
2024/04/08 03:52:58;;;;;;;1140.63;999.90;;;12.20;99.90;;;;;;5080515;28;20503;-64
2024/04/08 03:55:26;;;;;;;1150.33;999.90;;;12.10;99.90;;;;;;5086826;28;20449;-64
2024/04/08 03:57:54;;;;;;;1139.47;999.90;;;12.00;99.90;;;;;;5084379;28;20836;-65
2024/04/08 04:00:20;;;;;;;1151.90;999.90;;;12.00;99.90;;;;;;5086561;28;20485;-65
2024/04/08 04:02:47;;;;;;;1153.07;999.90;;;11.90;99.90;;;;;;5088037;28;20450;-64
2024/04/08 04:05:14;;;;;;;1157.87;999.90;;;11.80;99.90;;;;;;5079524;28;20538;-65
2024/04/08 04:07:40;;;;;;;1129.90;999.90;;;11.80;99.90;;;;;;5082978;28;20827;-65
2024/04/08 04:10:08;;;;;;;1131.23;999.90;;;11.70;99.90;;;;;;5079662;28;20450;-64
2024/04/08 04:12:37;;;;;;;1155.10;999.90;;;11.60;99.90;;;;;;5071738;28;20211;-64
2024/04/08 04:15:06;;;;;;;1163.67;999.90;;;11.70;99.90;;;;;;5071575;28;20507;-65
2024/04/08 04:17:32;;;;;;;1187.90;999.90;;;11.60;99.90;;;;;;5085410;28;20444;-65
2024/04/08 04:19:59;;;;;;;1175.03;999.90;;;11.70;99.90;;;;;;5076909;28;20508;-64
2024/04/08 04:22:24;;;;;;;1175.10;999.90;;;11.70;99.90;;;;;;5078501;28;20454;-64
2024/04/08 04:24:51;;;;;;;1186.60;999.90;;;11.80;99.90;;;;;;5079871;28;20478;-64
2024/04/08 04:27:17;;;;;;;1205.10;999.90;;;11.90;99.90;;;;;;5075736;28;20282;-65
2024/04/08 04:29:44;;;;;;;1204.07;999.90;;;11.90;99.90;;;;;;5075273;28;20553;-65
2024/04/08 04:32:11;;;;;;;1107.73;985.00;;;11.90;99.90;;;;;;5071367;28;20196;-64
2024/04/08 04:34:39;;;;;;;1102.93;981.47;;;12.00;99.90;;;;;;5080019;28;20531;-65
2024/04/08 04:37:05;;;;;;;1103.37;982.77;;;12.10;99.90;;;;;;5071451;28;20450;-64
2024/04/08 04:39:32;;;;;;;1108.30;984.20;;;12.20;99.90;;;;;;5071354;28;20454;-65
2024/04/08 04:43:18;;;;;;;1103.90;976.73;;;12.20;99.90;;;;;;5537458;25;20536;-64
2024/04/08 04:45:43;;;;;;;1112.67;989.37;;;12.30;99.90;;;;;;5521373;25;20456;-64
2024/04/08 04:48:12;;;;;;;1126.63;999.90;;;12.30;99.90;;;;;;5538391;25;20864;-64
2024/04/08 04:50:37;;;;;;;1105.37;985.10;;;12.40;99.90;;;;;;5518930;25;20335;-63
2024/04/08 04:53:06;;;;;;;1120.63;997.03;;;12.30;99.90;;;;;;5536700;25;20999;-64
2024/04/08 04:55:32;;;;;;;1104.67;983.23;;;12.40;99.90;;;;;;5490433;25;20270;-64
2024/04/08 04:58:00;;;;;;;1107.57;986.23;;;12.50;99.90;;;;;;5524578;25;20464;-64
2024/04/08 05:00:31;;;;;;;1103.63;982.13;;;12.50;99.90;;;;;;5543242;25;20287;-64
2024/04/08 05:03:01;;;;;;;1106.60;985.93;;;12.50;99.90;;;;;;5543429;25;20467;-64
2024/04/08 05:05:27;;;;;;;1125.20;999.90;;;12.50;99.90;;;;;;5543267;25;20596;-64
2024/04/08 05:07:57;;;;;;;1124.43;999.90;;;12.50;99.90;;;;;;5526823;25;20468;-64
2024/04/08 05:10:23;;;;;;;1114.30;991.80;;;12.50;99.90;;;;;;5530401;25;20508;-65
2024/04/08 05:12:51;;;;;;;1136.00;999.90;;;12.50;99.90;;;;;;5543559;25;20471;-64
2024/04/08 05:15:17;;;;;;;1126.17;999.90;;;12.50;99.90;;;;;;5543458;25;20745;-64
2024/04/08 05:17:48;;;;;;;1141.83;999.90;;;12.50;99.90;;;;;;5514052;25;20516;-64
2024/04/08 05:20:15;;;;;;;1144.30;999.90;;;12.50;99.90;;;;;;5506097;25;20392;-65
2024/04/08 05:22:47;;;;;;;1145.70;999.90;;;12.40;99.90;;;;;;5535240;25;20525;-64
2024/04/08 05:25:13;;;;;;;1155.50;999.90;;;12.50;99.90;;;;;;5521909;25;20452;-64
2024/04/08 05:27:41;;;;;;;1158.00;999.90;;;12.50;99.90;;;;;;5506188;25;21039;-64
2024/04/08 05:30:08;;;;;;;1144.30;999.90;;;12.50;99.90;;;;;;5541164;25;21114;-63
2024/04/08 05:32:36;;;;;;;1135.77;999.90;;;12.50;99.90;;;;;;5543229;25;20565;-64
2024/04/08 05:35:07;;;;;;;1135.70;999.90;;;12.50;99.90;;;;;;5543207;25;20573;-65
2024/04/08 05:37:35;;;;;;;1143.13;999.90;;;12.50;99.90;;;;;;5531057;25;20461;-65
2024/04/08 05:40:02;;;;;;;1162.47;999.90;;;12.50;99.90;;;;;;5505277;25;20582;-64
2024/04/08 05:42:31;;;;;;;1154.00;999.90;;;12.50;99.90;;;;;;5476140;25;20875;-64
2024/04/08 05:44:56;;;;;;;1150.03;999.90;;;12.50;99.90;;;;;;5494497;25;20470;-64
2024/04/08 05:47:25;;;;;;;1149.80;999.90;;;12.60;99.90;;;;;;5509006;25;21140;-64
2024/04/08 05:49:51;;;;;;;1161.60;999.90;;;12.60;99.90;;;;;;5505311;25;20590;-64
2024/04/08 05:52:22;;;;;;;1146.63;999.90;;;12.60;99.90;;;;;;5520562;25;20567;-63
2024/04/08 05:54:47;;;;;;;1145.07;999.90;;;12.70;99.90;;;;;;5484594;26;20241;-65
2024/04/08 05:57:16;;;;;;;1155.53;999.90;;;12.80;99.90;;;;;;5485514;26;20510;-64
2024/04/08 05:59:42;;;;;;;1150.37;999.90;;;12.80;99.90;;;;;;5481302;26;20236;-64
2024/04/08 06:02:10;;;;;;;1148.67;999.90;;;12.90;99.90;;;;;;5505379;26;20465;-65
2024/04/08 06:04:36;;;;;;;1154.10;999.90;;;12.90;99.90;;;;;;5502258;26;20320;-64
2024/04/08 06:07:04;;;;;;;1171.70;999.90;;;13.00;99.90;;;;;;5526626;25;20457;-64
2024/04/08 06:09:33;;;;;;;1175.83;999.90;;;13.10;99.90;;;;;;5526424;25;20835;-66
2024/04/08 06:12:01;;;;;;;1134.63;999.90;;;13.20;99.90;;;;;;5526744;25;20480;-65
2024/04/08 06:14:27;;;;;;;1163.87;999.90;;;13.30;99.90;;;;;;5501266;25;20465;-65
2024/04/08 06:16:59;;;;;;;1166.60;999.90;;;13.30;99.90;;;;;;5520654;25;20581;-65
2024/04/08 06:19:25;;;;;;;1160.03;999.90;;;13.40;99.90;;;;;;5489021;26;20462;-65
2024/04/08 06:21:53;;;;;;;1163.80;999.90;;;13.50;99.90;;;;;;5506727;26;20831;-64
2024/04/08 06:24:20;;;;;;;1156.47;999.90;;;13.60;99.90;;;;;;5497372;26;20883;-64
2024/04/08 06:26:51;;;;;;;1161.40;999.90;;;13.80;99.90;;;;;;5499270;25;20440;-65
2024/04/08 06:29:17;;;;;;;1175.57;999.90;;;13.80;99.90;;;;;;5472532;26;20604;-65
2024/04/08 06:31:45;;;;;;;1198.80;999.90;;;13.90;99.90;;;;;;5480761;26;20541;-64
2024/04/08 06:34:11;;;;;;;1193.90;999.90;;;14.00;99.90;;;;;;5510482;25;20476;-65
2024/04/08 06:36:40;;;;;;;1182.40;999.90;;;14.20;99.90;;;;;;5497954;25;20509;-64
2024/04/08 06:39:06;;;;;;;1188.70;999.90;;;14.30;99.90;;;;;;5523792;25;20227;-64
2024/04/08 06:41:36;;;;;;;1140.63;999.90;;;14.50;99.90;;;;;;5525294;25;20464;-65
2024/04/08 06:44:05;;;;;;;1116.60;999.90;;;14.50;99.90;;;;;;5494613;25;20518;-65
2024/04/08 06:46:34;;;;;;;1031.73;962.93;;;14.70;99.90;;;;;;5514952;25;21067;-65
2024/04/08 06:49:00;;;;;;;1029.60;961.17;;;14.70;99.90;;;;;;5507162;26;20558;-65
2024/04/08 06:51:28;;;;;;;927.83;869.73;;;14.80;99.90;;;;;;5492792;25;20463;-65
2024/04/08 06:53:54;;;;;;;904.50;849.70;;;14.80;99.90;;;;;;5467123;26;20230;-67
2024/04/08 06:56:22;;;;;;;894.20;840.30;;;14.90;99.90;;;;;;5475452;26;21079;-64
2024/04/08 06:58:48;;;;;;;880.43;828.97;;;15.00;99.90;;;;;;5485888;26;20275;-64
2024/04/08 07:01:20;;;;;;;860.00;812.33;;;15.10;99.90;;;;;;5495343;26;20886;-64
2024/04/08 07:03:45;;;;;;;843.50;800.13;;;15.10;99.90;;;;;;5496244;25;20241;-65
2024/04/08 07:06:15;;;;;;;801.53;767.13;;;15.10;99.90;;;;;;5523898;25;20440;-65
2024/04/08 07:08:41;;;;;;;834.77;794.57;;;15.10;99.90;;;;;;5509301;25;20225;-64
2024/04/08 07:11:09;;;;;;;844.17;801.63;;;15.20;99.90;;;;;;5489252;26;20518;-65
2024/04/08 07:13:36;;;;;;;804.77;768.80;;;15.40;99.90;;;;;;5475598;25;20218;-65
2024/04/08 07:16:05;;;;;;;807.10;771.03;;;15.40;99.90;;;;;;5479135;26;20455;-65
2024/04/08 07:18:34;;;;;;;820.17;782.43;;;15.50;99.90;;;;;;5491880;25;20803;-65
2024/04/08 07:21:03;;;;;;;810.47;775.27;;;15.60;99.90;;;;;;5488413;26;20597;-65
2024/04/08 07:23:29;;;;;;;808.33;773.53;;;15.60;99.90;;;;;;5488826;26;20526;-64
2024/04/08 07:25:57;;;;;;;800.23;767.03;;;15.70;99.90;;;;;;5521530;26;20453;-65
2024/04/08 07:28:23;;;;;;;804.80;771.07;;;15.80;99.90;;;;;;5526080;25;20243;-65
2024/04/08 07:30:52;;;;;;;826.63;790.53;;;15.90;99.90;;;;;;5525710;25;20987;-65
2024/04/08 07:33:17;;;;;;;804.80;770.43;;;16.00;99.90;;;;;;5525700;25;20264;-65
2024/04/08 07:35:49;;;;;;;660.30;637.20;;;16.40;99.90;;;;;;5497101;25;20474;-65
2024/04/08 07:38:15;;;;;;;644.80;622.17;;;16.40;99.90;;;;;;5474050;26;20260;-65
2024/04/08 07:40:44;;;;;;;730.73;703.07;;;16.50;99.90;;;;;;5517000;26;20456;-65
2024/04/08 07:43:10;;;;;;;487.87;471.20;;;16.70;99.90;;;;;;5525150;25;20573;-64
2024/04/08 07:45:40;;;;;;;351.40;339.87;;;16.70;99.90;;;;;;5525799;25;20472;-65
2024/04/08 07:48:06;;;;;;;231.73;223.40;;;16.80;99.90;;;;;;5494769;25;20263;-65
2024/04/08 07:50:35;;;;;;;134.63;129.33;;;16.80;99.90;;;;;;5498399;25;20458;-65
2024/04/08 07:53:05;;;;;;;196.80;189.70;;;16.80;99.90;;;;;;5492209;26;20461;-65
2024/04/08 07:55:33;;;;;;;154.20;148.40;;;16.90;99.90;;;;;;5482313;25;20463;-64
2024/04/08 07:57:59;;;;;;;124.67;119.50;;;17.00;99.90;;;;;;5487906;26;20575;-65
2024/04/08 08:00:27;;;;;;;90.83;86.67;;;17.00;99.90;;;;;;5485147;26;20457;-64
2024/04/08 08:02:53;;;;;;;80.50;76.57;;;17.00;99.90;;;;;;5497752;26;20735;-64
2024/04/08 08:05:22;;;;;;;50.27;47.27;;;17.10;99.90;;;;;;5502125;25;20462;-64
2024/04/08 08:07:47;;;;;;;34.63;32.57;;;17.10;99.90;;;;;;5519244;26;20320;-64
2024/04/08 08:10:19;;;;;;;30.73;28.63;;;17.20;99.90;;;;;;5524794;25;20500;-64
2024/04/08 08:12:47;;;;;;;19.90;18.13;;;17.10;99.90;;;;;;5510730;25;20732;-65
2024/04/08 08:15:16;;;;;;;21.00;15.73;;;17.20;99.90;;;;;;5488568;26;20505;-65
2024/04/08 08:17:42;;;;;;;19.90;15.83;;;17.30;99.90;;;;;;5501016;26;20531;-64
2024/04/08 08:20:11;;;;;;;15.30;13.60;;;17.50;99.90;;;;;;5524083;25;21116;-64
2024/04/08 08:22:39;;;;;;;17.93;11.30;;;17.50;99.90;;;;;;5524721;25;20235;-64
2024/04/08 08:25:09;;;;;;;15.13;11.60;;;17.70;99.90;;;;;;5479835;25;20475;-65
2024/04/08 08:27:40;;;;;;;15.47;9.50;;;17.90;99.90;;;;;;5489587;26;20555;-64
2024/04/08 08:30:09;;;;;;;12.63;10.20;;;18.20;94.40;;;;;;5491706;26;20613;-68
2024/04/08 08:32:38;;;;;;;17.30;9.40;;;18.60;98.30;;;;;;5501167;25;20944;-64
2024/04/08 08:35:06;;;;;;;17.37;10.30;;;18.80;94.90;;;;;;5498138;26;20558;-65
2024/04/08 08:37:32;;;;;;;15.83;9.03;;;19.10;94.70;;;;;;5494398;25;20931;-65
2024/04/08 08:40:01;;;;;;;17.00;10.37;;;19.10;90.80;;;;;;5489384;25;20473;-63
2024/04/08 08:42:29;;;;;;;12.53;9.10;;;19.10;85.20;;;;;;5499337;25;20347;-63
2024/04/08 08:45:01;;;;;;;13.40;9.57;;;19.20;85.30;;;;;;5503016;26;20894;-64
2024/04/08 08:47:27;;;;;;;14.77;9.90;;;19.50;85.60;;;;;;5502877;26;20506;-64
2024/04/08 08:49:57;;;;;;;13.47;8.90;;;20.00;86.00;;;;;;5472973;26;20469;-63
2024/04/08 08:52:24;;;;;;;15.38;8.93;;;20.20;78.30;;;;;;5473173;26;20355;-63
2024/04/08 08:54:54;;;;;;;20.43;11.03;;;20.30;72.50;;;;;;5469749;26;20630;-63
2024/04/08 08:57:21;;;;;;;18.27;9.97;;;20.40;70.50;;;;;;5516093;25;20517;-63
2024/04/08 08:59:52;;;;;;;17.83;9.50;;;20.40;70.40;;;;;;5486976;26;20499;-64
2024/04/08 09:02:20;;;;;;;16.97;10.37;;;20.70;70.70;;;;;;5496554;26;20452;-63
2024/04/08 09:04:49;;;;;;;13.40;8.63;;;21.00;71.00;;;;;;5524091;25;20509;-63
2024/04/08 09:07:15;;;;;;;15.30;11.03;;;21.10;58.30;;;;;;5524436;25;20591;-63
2024/04/08 09:09:53;;;;;;;14.20;10.40;;;21.30;57.80;;;;;;5523441;25;20476;-63
2024/04/08 09:12:19;;;;;;;18.90;11.07;;;21.40;54.60;;;;;;5524109;25;20227;-63
2024/04/08 09:14:49;;;;;;;16.63;10.93;;;21.60;54.70;;;;;;5523792;25;20520;-63
2024/04/08 09:17:16;;;;;;;16.13;10.90;;;21.60;54.70;;;;;;5472983;26;20506;-64
2024/04/08 09:19:47;;;;;;;21.57;13.67;;;21.70;54.80;;;;;;5515223;25;20507;-63
2024/04/08 09:22:13;;;;;;;23.10;13.80;;;21.90;53.50;;;;;;5517432;25;20946;-63
2024/04/08 09:24:42;;;;;;;21.40;12.77;;;22.10;55.10;;;;;;5486740;26;20583;-63
2024/04/08 09:27:09;;;;;;;18.43;14.33;;;22.20;46.40;;;;;;5507147;26;20464;-64
2024/04/08 09:29:37;;;;;;;21.17;13.80;;;22.40;46.50;;;;;;5514432;25;20514;-64
2024/04/08 09:32:08;;;;;;;19.43;13.20;;;22.70;42.20;;;;;;5509142;26;20585;-64
2024/04/08 09:34:36;;;;;;;24.50;13.43;;;22.80;37.90;;;;;;5527338;25;20903;-63
2024/04/08 09:37:08;;;;;;;22.70;12.27;;;22.60;37.70;;;;;;5527545;25;20476;-64
2024/04/08 09:39:40;;;;;;;17.70;12.30;;;22.90;38.00;;;;;;5526747;25;20610;-64
2024/04/08 09:42:08;;;;;;;17.60;12.30;;;23.00;38.00;;;;;;5526933;25;20456;-63
2024/04/08 09:44:37;;;;;;;19.97;14.40;;;22.70;30.80;;;;;;5515363;25;21009;-63
2024/04/08 09:47:05;;;;;;;17.77;12.27;;;22.70;37.70;;;;;;5509453;26;21139;-64
2024/04/08 09:49:36;;;;;;;18.53;10.27;;;22.90;37.40;;;;;;5526947;25;20909;-64
2024/04/08 09:52:08;;;;;;;20.40;11.60;;;23.10;29.20;;;;;;5496834;25;20461;-64
2024/04/08 09:54:38;;;;;;;19.07;10.47;;;23.30;29.10;;;;;;5500324;25;20465;-64
2024/04/08 09:57:08;;;;;;;18.80;11.90;;;23.50;22.30;;;;;;5493818;26;21071;-64
2024/04/08 09:59:38;;;;;;;20.93;11.50;;;23.80;22.40;;;;;;5515273;25;20469;-64
2024/04/08 10:02:12;;;;;;;18.97;10.80;;;23.90;22.50;;;;;;5509415;26;20460;-63
2024/04/08 10:04:43;;;;;;;21.97;11.53;;;24.00;22.50;;;;;;5499242;25;20462;-64
2024/04/08 10:07:11;;;;;;;21.03;10.03;;;24.30;15.40;;;;;;5505453;25;20861;-64
2024/04/08 10:09:40;;;;;;;18.23;10.23;;;24.40;15.50;;;;;;5517318;25;20469;-63
2024/04/08 10:12:10;;;;;;;14.60;9.60;;;24.40;15.40;;;;;;5526998;25;20553;-64
2024/04/08 10:14:36;;;;;;;17.70;10.33;;;24.60;15.20;;;;;;5527080;25;21059;-64
2024/04/08 10:17:04;;;;;;;16.67;10.43;;;24.70;8.50;;;;;;5526595;25;20468;-64
2024/04/08 10:19:30;;;;;;;18.13;9.83;;;25.00;11.80;;;;;;5526275;25;20220;-63
2024/04/08 10:22:02;;;;;;;15.90;9.53;;;25.00;8.10;;;;;;5526615;25;20460;-63
2024/04/08 10:24:32;;;;;;;16.43;9.33;;;25.80;8.50;;;;;;5526474;25;20228;-64
2024/04/08 10:27:04;;;;;;;15.50;10.40;;;25.60;1.00;;;;;;5524154;25;20460;-64
2024/04/08 10:29:32;;;;;;;17.50;9.20;;;25.90;1.00;;;;;;5489172;26;20467;-64
2024/04/08 10:32:00;;;;;;;19.80;10.70;;;26.40;1.00;;;;;;5504879;26;20456;-64
2024/04/08 10:34:26;;;;;;;16.27;9.23;;;26.10;1.00;;;;;;5499073;26;20460;-64
2024/04/08 10:36:56;;;;;;;21.67;10.67;;;25.40;1.00;;;;;;5510080;25;20501;-63
2024/04/08 10:39:26;;;;;;;18.53;10.20;;;25.00;1.00;;;;;;5512554;26;20266;-64
2024/04/08 10:41:59;;;;;;;13.67;9.10;;;25.10;1.00;;;;;;5525481;25;20516;-64
2024/04/08 10:44:26;;;;;;;17.37;8.87;;;25.20;1.00;;;;;;5498700;26;20878;-64
2024/04/08 10:46:55;;;;;;;15.03;10.43;;;25.10;1.00;;;;;;5510026;25;20866;-64
2024/04/08 10:49:21;;;;;;;18.23;10.30;;;24.50;1.00;;;;;;5512322;26;20581;-62
2024/04/08 10:51:51;;;;;;;17.20;10.13;;;24.00;1.00;;;;;;5496152;25;21272;-64
2024/04/08 10:54:18;;;;;;;16.92;10.30;;;23.80;7.20;;;;;;5504068;26;20450;-64
2024/04/08 10:56:46;;;;;;;19.17;11.02;;;24.10;7.50;;;;;;5453420;26;20365;-64
2024/04/08 10:59:15;;;;;;;17.17;9.77;;;24.50;13.20;;;;;;5449748;26;20342;-64
2024/04/08 11:01:43;;;;;;;14.50;8.50;;;24.70;7.90;;;;;;5465941;26;20461;-64
2024/04/08 11:04:09;;;;;;;13.00;8.27;;;24.60;7.80;;;;;;5472432;26;20549;-66
2024/04/08 11:06:38;;;;;;;13.57;8.30;;;24.40;1.00;;;;;;5474403;26;20466;-65
2024/04/08 11:09:04;;;;;;;20.80;7.97;;;24.30;1.00;;;;;;5504027;26;20510;-66
2024/04/08 11:11:34;;;;;;;15.60;7.67;;;24.00;1.00;;;;;;5495867;25;21000;-65
2024/04/08 11:14:00;;;;;;;15.23;8.83;;;23.80;1.00;;;;;;5481815;26;20483;-64
2024/04/08 11:16:34;;;;;;;14.87;8.80;;;23.80;7.20;;;;;;5487437;26;20458;-65
2024/04/08 11:19:00;;;;;;;16.13;7.43;;;23.50;7.00;;;;;;5488224;26;20237;-65
2024/04/08 11:21:29;;;;;;;17.73;8.83;;;23.50;7.00;;;;;;5485378;26;20881;-65
2024/04/08 11:23:55;;;;;;;18.07;8.07;;;24.10;2.60;;;;;;5487151;26;20465;-65
2024/04/08 11:26:30;;;;;;;13.80;8.30;;;25.10;1.00;;;;;;5514467;25;20862;-65
2024/04/08 11:28:59;;;;;;;19.57;8.87;;;26.20;1.00;;;;;;5474675;26;20233;-66
2024/04/08 11:31:28;;;;;;;13.27;8.40;;;26.10;1.00;;;;;;5488766;26;20460;-65
2024/04/08 11:33:56;;;;;;;15.30;9.03;;;26.40;1.00;;;;;;5494453;26;20876;-65
2024/04/08 11:36:24;;;;;;;15.00;7.90;;;27.40;1.00;;;;;;5467314;25;20507;-65
2024/04/08 11:38:50;;;;;;;16.23;8.97;;;28.00;1.00;;;;;;5473903;26;21035;-65
2024/04/08 11:41:19;;;;;;;11.80;6.90;;;28.30;1.00;;;;;;5488612;25;20462;-65
2024/04/08 11:43:45;;;;;;;16.73;9.00;;;28.10;1.00;;;;;;5485664;26;20245;-65
2024/04/08 11:46:14;;;;;;;12.80;7.07;;;27.50;1.00;;;;;;5481664;26;20457;-63
2024/04/08 11:48:41;;;;;;;12.93;7.90;;;27.30;1.00;;;;;;5502152;25;20228;-65
2024/04/08 11:51:12;;;;;;;14.30;6.77;;;27.70;1.00;;;;;;5486379;26;20535;-66
2024/04/08 11:53:38;;;;;;;13.03;7.30;;;29.10;1.00;;;;;;5488623;26;20521;-68
2024/04/08 11:56:07;;;;;;;11.97;6.20;;;29.30;1.00;;;;;;5488807;26;21160;-68
2024/04/08 11:58:33;;;;;;;11.60;6.13;;;28.60;1.00;;;;;;5479770;26;20603;-68
2024/04/08 12:01:02;;;;;;;18.43;7.67;;;28.30;1.00;;;;;;5479559;26;20474;-69
2024/04/08 12:03:28;;;;;;;10.83;7.50;;;27.00;1.00;;;;;;5507698;25;20228;-69
2024/04/08 12:05:56;;;;;;;14.20;7.27;;;26.40;1.00;;;;;;5487705;25;20510;-69
2024/04/08 12:08:25;;;;;;;14.77;6.13;;;26.40;1.00;;;;;;5481509;26;20342;-68
2024/04/08 12:10:53;;;;;;;15.37;7.00;;;26.60;1.00;;;;;;5495125;26;20500;-68
2024/04/08 12:13:20;;;;;;;12.40;7.80;;;26.60;1.00;;;;;;5488234;26;20474;-68
2024/04/08 12:15:50;;;;;;;16.87;9.07;;;26.00;1.00;;;;;;5488613;26;20462;-68